Latest Weather Observations for Mount Boyce

IDN60801

Issued at 3:22 pm EST Thursday 28 May 2020 (issued every 10 minutes, with the page automatically refreshed every 10 minutes)

About weather observations | Map of weather stations | Latest weather observations for NSW | Other Formats
Station Details ID: 063292 Name: MOUNT BOYCE AWS Lat: -33.62 Lon: 150.27 Height: 1080.0 m
Data from the previous 72 hours. | See also: Recent months at Mount Boyce
Date/Time
EST
Temp
°C
App
Temp
°C
Dew
Point
°C
Rel
Hum
%
Delta-T
°C
Wind Press
QNH
hPa
Press
MSL
hPa
Rain since
9am
mm
Dir  Spd
km/h
Gust
km/h
Spd
kts
Gust
kts
28/03:00pm 11.5 8.8 5.8 68 2.8 SSW 9 15 5 8 - - 0.0
28/02:30pm 12.7 9.1 4.9 59 3.8 W 13 22 7 12 - - 0.0
28/02:00pm 12.1 9.3 5.0 62 3.5 W 9 15 5 8 - - 0.0
28/01:30pm 13.7 11.1 6.3 61 3.8 W 9 13 5 7 - - 0.0
28/01:00pm 13.1 10.3 6.9 66 3.2 W 11 17 6 9 - - 0.0
28/12:30pm 12.1 9.0 5.7 65 3.2 W 11 17 6 9 - - 0.0
28/12:00pm 11.6 8.8 6.9 73 2.4 W 11 17 6 9 - - 0.0
28/11:30am 10.9 8.1 6.8 76 2.1 W 11 17 6 9 - - 0.0
28/11:00am 10.2 7.0 6.7 79 1.8 W 13 17 7 9 - - 0.0
28/10:30am 9.7 6.9 6.8 82 1.4 W 11 15 6 8 - - 0.0
28/10:00am 9.2 5.9 6.6 84 1.3 W 13 19 7 10 - - 0.0
28/09:30am 8.3 5.3 5.9 85 1.2 W 11 17 6 9 - - 0.0
28/09:00am 7.5 4.4 5.5 87 1.0 W 11 13 6 7 - - 0.2
28/08:30am 6.9 3.7 5.2 89 0.8 WSW 11 13 6 7 - - 0.2
28/08:00am 6.2 3.0 5.0 92 0.6 WSW 11 13 6 7 - - 0.2
28/07:30am 5.8 2.6 4.9 94 0.4 WSW 11 13 6 7 - - 0.2
28/07:00am 5.9 2.7 4.9 93 0.5 W 11 13 6 7 - - 0.2
28/06:30am 5.8 3.0 5.1 95 0.3 W 9 11 5 6 - - 0.2
28/06:00am 6.0 2.8 5.3 95 0.3 W 11 13 6 7 - - 0.0
28/05:30am 5.9 2.8 5.5 97 0.2 WSW 11 15 6 8 - - 0.0
28/05:00am 5.8 2.3 5.5 98 0.1 W 13 17 7 9 - - 0.0
28/04:30am 5.7 2.2 5.4 98 0.1 W 13 15 7 8 - - 0.0
28/04:00am 5.9 2.4 5.6 98 0.1 W 13 15 7 8 - - 0.0
28/03:30am 6.2 3.6 5.9 98 0.1 W 9 13 5 7 - - 0.0
28/03:00am 6.6 3.7 6.5 99 0.0 W 11 17 6 9 - - 0.0
28/02:30am 6.8 4.9 6.7 99 0.0 W 6 9 3 5 - - 0.0
28/02:27am 6.8 4.9 6.7 99 0.0 W 6 9 3 5 - - 0.0
28/02:23am 6.9 4.8 6.8 99 0.0 W 7 9 4 5 - - 0.0
28/02:00am 7.0 5.0 6.9 99 0.0 WSW 7 9 4 5 - - 0.0
28/01:30am 7.5 6.1 7.4 99 0.0 W 4 15 2 8 - - 0.0
28/01:00am 7.4 6.7 7.1 98 0.1 CALM 0 0 0 0 - - 0.0
28/12:38am 7.5 6.9 7.2 98 0.1 CALM 0 0 0 0 - - 0.0
28/12:30am 7.4 6.7 7.0 97 0.2 CALM 0 0 0 0 - - 0.0
28/12:00am 7.7 7.1 7.3 97 0.2 CALM 0 0 0 0 - - 0.0
 
Date/Time
EST
Temp
°C
App
Temp
°C
Dew
Point
°C
Rel
Hum
%
Delta-T
°C
Wind Press
QNH
hPa
Press
MSL
hPa
Rain since
9am
mm
Dir  Spd
km/h
Gust
km/h
Spd
kts
Gust
kts
27/11:30pm 7.9 7.3 7.6 98 0.2 CALM 0 0 0 0 - - 0.0
27/11:00pm 7.7 7.1 7.4 98 0.1 CALM 0 0 0 0 - - 0.0
27/10:51pm 7.8 7.2 7.5 98 0.2 CALM 0 0 0 0 - - 0.0
27/10:31pm 7.5 6.9 7.2 98 0.1 CALM 0 0 0 0 - - 0.0
27/10:30pm 7.6 7.0 7.3 98 0.1 CALM 0 0 0 0 - - 0.0
27/10:00pm 7.7 7.1 7.3 97 0.2 CALM 0 0 0 0 - - 0.0
27/09:30pm 7.8 7.2 7.4 97 0.2 CALM 0 0 0 0 - - 0.0
27/09:00pm 7.9 7.3 7.5 97 0.2 CALM 0 0 0 0 - - 0.0
27/08:41pm 8.2 7.7 7.9 98 0.2 CALM 0 0 0 0 - - 0.0
27/08:36pm 8.2 7.7 7.9 98 0.2 CALM 0 0 0 0 - - 0.0
27/08:30pm 8.3 7.8 8.0 98 0.2 CALM 0 0 0 0 - - 0.0
27/08:23pm 8.2 7.7 7.8 97 0.2 CALM 0 0 0 0 - - 0.0
27/08:16pm 8.2 7.7 7.8 97 0.2 CALM 0 0 0 0 - - 0.0
27/08:00pm 8.2 7.7 7.8 97 0.2 CALM 0 0 0 0 - - 0.0
27/07:30pm 8.5 8.1 8.1 97 0.2 CALM 0 0 0 0 - - 0.0
27/07:00pm 8.5 8.0 7.9 96 0.3 CALM 0 0 0 0 - - 0.0
27/06:30pm 8.8 8.3 8.0 95 0.4 CALM 0 0 0 0 - - 0.0
27/06:00pm 8.9 7.3 7.8 93 0.6 ENE 6 9 3 5 - - 0.0
27/05:30pm 9.4 8.6 8.0 91 0.7 ENE 2 7 1 4 - - 0.0
27/05:00pm 9.7 7.8 7.6 87 1.1 ENE 7 9 4 5 - - 0.0
27/04:30pm 10.3 8.4 7.5 83 1.4 ENE 7 11 4 6 - - 0.0
27/04:00pm 11.2 10.1 6.7 74 2.3 N 2 7 1 4 - - 0.0
27/03:30pm 12.1 11.3 6.6 69 2.8 CALM 0 0 0 0 - - 0.0
27/03:00pm 12.4 10.1 5.6 63 3.4 WSW 7 15 4 8 - - 0.0
27/02:30pm 12.5 10.5 6.3 66 3.1 WSW 6 11 3 6 - - 0.0
27/02:00pm 12.3 10.5 7.2 71 2.6 WNW 6 13 3 7 - - 0.0
27/01:30pm 11.3 8.9 7.2 76 2.1 W 9 15 5 8 - - 0.0
27/01:00pm 11.9 10.2 8.4 79 1.8 W 7 15 4 8 - - 0.0
27/12:30pm 10.6 9.2 8.7 88 1.0 WSW 6 11 3 6 - - 0.0
27/12:14pm 9.5 8.2 7.6 88 1.0 W 4 7 2 4 - - 0.0
27/12:02pm 9.6 8.7 7.9 89 0.9 WSW 2 11 1 6 - - 0.0
27/12:00pm 9.7 8.9 8.1 90 0.8 WSW 2 9 1 5 - - 0.0
27/11:58am 9.8 9.4 8.4 91 0.7 CALM 0 7 0 4 - - 0.0
27/11:30am 9.7 8.9 8.1 90 0.8 WSW 2 11 1 6 - - 0.0
27/11:00am 9.3 8.7 7.4 88 1.0 CALM 0 0 0 0 - - 0.0
27/10:55am 10.3 9.8 7.9 85 1.2 CALM 0 9 0 5 - - 0.0
27/10:35am 8.3 6.6 7.5 95 0.4 W 6 9 3 5 - - 0.0
27/10:30am 8.2 6.8 7.3 94 0.4 W 4 9 2 5 - - 0.0
27/10:22am 8.4 7.8 7.5 94 0.5 CALM 0 0 0 0 - - 0.0
27/10:11am 8.3 7.7 7.4 94 0.5 CALM 0 0 0 0 - - 0.0
27/10:00am 8.2 7.2 7.4 95 0.4 WNW 2 7 1 4 - - 0.0
27/09:37am 8.4 7.5 7.6 95 0.4 S 2 9 1 5 - - 0.0
27/09:30am 8.8 8.0 8.0 95 0.4 E 2 9 1 5 - - 0.0
27/09:00am 8.4 7.3 8.3 99 0.1 ENE 4 9 2 5 - - 3.6
27/08:30am 7.4 6.8 7.3 99 0.0 CALM 0 0 0 0 - - 3.6
27/08:17am 7.0 6.3 6.9 99 0.0 CALM 0 0 0 0 - - 3.6
27/08:00am 6.0 5.1 5.9 99 0.0 CALM 0 0 0 0 - - 3.6
27/07:30am 5.9 4.9 5.8 99 0.0 CALM 0 0 0 0 - - 3.6
27/07:00am 6.3 5.4 6.2 99 0.0 CALM 0 0 0 0 - - 3.6
27/06:30am 6.3 5.4 6.2 99 0.0 CALM 0 0 0 0 - - 3.6
27/06:05am 6.0 5.1 5.9 99 0.0 CALM 0 0 0 0 - - 3.6
27/06:00am 6.1 5.2 6.0 99 0.0 CALM 0 6 0 3 - - 3.6
27/05:30am 6.7 5.2 6.6 99 0.0 ESE 4 11 2 6 - - 3.6
27/05:00am 6.8 5.7 6.7 99 0.0 ESE 2 13 1 7 - - 3.6
27/04:53am 6.9 6.2 6.8 99 0.0 CALM 0 0 0 0 - - 3.6
27/04:30am 6.9 6.2 6.8 99 0.0 CALM 0 6 0 3 - - 3.4
27/04:16am 6.9 6.2 6.8 99 0.0 CALM 0 0 0 0 - - 3.4
27/04:13am 6.9 6.2 6.8 99 0.0 CALM 0 0 0 0 - - 3.4
27/04:00am 6.9 5.8 6.8 99 0.0 SE 2 9 1 5 - - 3.4
27/03:30am 7.0 5.9 6.9 99 0.0 E 2 13 1 7 - - 3.4
27/03:00am 6.9 5.8 6.8 99 0.0 SE 2 9 1 5 - - 3.4
27/02:30am 7.0 5.5 6.9 99 0.0 ESE 4 11 2 6 - - 3.4
27/02:00am 7.1 5.3 7.0 99 0.0 SSE 6 13 3 7 - - 3.4
27/01:30am 6.9 5.8 6.8 99 0.0 SSE 2 9 1 5 - - 3.4
27/01:23am 6.9 6.2 6.8 99 0.0 CALM 0 9 0 5 - - 3.4
27/01:17am 6.8 6.0 6.7 99 0.0 CALM 0 0 0 0 - - 3.4
27/01:04am 6.7 5.9 6.6 99 0.0 CALM 0 7 0 4 - - 3.4
27/01:00am 6.6 5.4 6.5 99 0.0 E 2 7 1 4 - - 3.4
27/12:59am 6.6 5.4 6.5 99 0.0 E 2 7 1 4 - - 3.4
27/12:49am 6.6 5.0 6.5 99 0.0 E 4 9 2 5 - - 3.4
27/12:31am 6.9 4.5 6.8 99 0.0 ESE 9 15 5 8 - - 3.4
27/12:30am 6.9 4.5 6.8 99 0.0 ESE 9 15 5 8 - - 3.4
27/12:00am 7.2 5.2 7.1 99 0.0 ESE 7 17 4 9 - - 3.4
 
Date/Time
EST
Temp
°C
App
Temp
°C
Dew
Point
°C
Rel
Hum
%
Delta-T
°C
Wind Press
QNH
hPa
Press
MSL
hPa
Rain since
9am
mm
Dir  Spd
km/h
Gust
km/h
Spd
kts
Gust
kts
26/11:30pm 7.2 5.2 7.1 99 0.0 ESE 7 13 4 7 - - 3.4
26/11:00pm 7.2 5.2 7.1 99 0.0 E 7 15 4 8 - - 3.4
26/10:30pm 7.4 5.1 7.3 99 0.0 ESE 9 17 5 9 - - 3.2
26/10:00pm 7.3 4.2 7.2 99 0.0 ESE 13 24 7 13 - - 2.6
26/09:30pm 7.4 5.1 7.3 99 0.0 ESE 9 17 5 9 - - 2.6
26/09:00pm 7.4 4.7 7.3 99 0.0 SE 11 20 6 11 - - 2.2
26/08:53pm 7.4 4.7 7.3 99 0.0 ESE 11 26 6 14 - - 2.2
26/08:51pm 7.4 4.7 7.3 99 0.0 SE 11 26 6 14 - - 2.2
26/08:31pm 7.5 4.8 7.4 99 0.0 SE 11 20 6 11 - - 2.2
26/08:30pm 7.4 5.1 7.3 99 0.0 SE 9 20 5 11 - - 2.2
26/08:19pm 7.4 4.7 7.3 99 0.0 ESE 11 20 6 11 - - 2.2
26/08:00pm 7.4 5.1 7.3 99 0.0 SE 9 19 5 10 - - 2.2
26/07:33pm 7.2 4.8 6.9 98 0.1 SE 9 15 5 8 - - 2.2
26/07:30pm 7.1 4.7 6.8 98 0.1 SE 9 20 5 11 - - 2.2
26/07:00pm 7.2 4.4 6.9 98 0.1 ESE 11 22 6 12 - - 2.2
26/06:30pm 7.4 4.7 7.3 99 0.0 ESE 11 20 6 11 - - 2.2
26/06:00pm 6.9 4.0 6.6 98 0.1 ESE 11 22 6 12 - - 2.2
26/05:56pm 6.9 3.6 6.5 97 0.2 ESE 13 20 7 11 - - 2.2
26/05:30pm 6.9 4.0 6.3 96 0.3 ESE 11 19 6 10 - - 2.2
26/05:00pm 7.4 5.0 7.0 97 0.2 E 9 20 5 11 - - 2.2
26/04:39pm 7.6 4.8 7.0 96 0.3 E 11 28 6 15 - - 2.2
26/04:37pm 7.5 4.7 6.9 96 0.3 E 11 28 6 15 - - 2.2
26/04:30pm 7.6 4.4 7.0 96 0.3 ESE 13 24 7 13 - - 2.2
26/04:10pm 8.2 5.2 7.8 97 0.2 ESE 13 24 7 13 - - 2.0
26/04:00pm 8.3 5.3 7.9 97 0.2 ESE 13 22 7 12 - - 2.0
26/03:30pm 8.9 6.5 8.6 98 0.2 ESE 11 20 6 11 - - 2.0
26/03:05pm 8.5 5.6 8.2 98 0.2 ESE 13 26 7 14 - - 2.0
26/03:00pm 8.3 5.8 8.0 98 0.2 SE 11 24 6 13 - - 2.0
26/02:30pm 8.4 5.9 8.3 99 0.1 ESE 11 20 6 11 - - 1.8
26/02:00pm 8.9 6.2 8.8 99 0.1 ESE 13 30 7 16 - - 1.2
26/01:52pm 8.7 5.5 8.4 98 0.2 ESE 15 30 8 16 - - 1.2
26/01:51pm 8.6 5.4 8.3 98 0.2 ESE 15 30 8 16 - - 1.2
26/01:30pm 9.5 7.3 9.4 99 0.1 ESE 11 22 6 12 - - 1.2
26/01:00pm 9.2 6.2 9.1 99 0.1 SE 15 30 8 16 - - 1.0
26/12:30pm 9.1 6.4 9.0 99 0.1 ESE 13 24 7 13 - - 1.0
26/12:00pm 8.9 6.5 8.8 99 0.1 SE 11 22 6 12 - - 1.0
26/11:53am 9.0 6.3 8.9 99 0.1 SE 13 26 7 14 - - 1.0
26/11:52am 8.9 6.2 8.8 99 0.1 SE 13 26 7 14 - - 1.0
26/11:35am 9.5 7.7 9.4 99 0.1 SE 9 26 5 14 - - 1.0
26/11:30am 9.1 6.4 9.0 99 0.1 SE 13 26 7 14 - - 1.0
26/11:25am 9.2 6.5 9.1 99 0.1 SE 13 26 7 14 - - 1.0
26/11:00am 9.0 6.3 8.9 99 0.1 SE 13 24 7 13 - - 0.8
26/10:30am 8.8 6.0 8.7 99 0.1 SSE 13 30 7 16 - - 0.8
26/10:00am 8.6 6.6 8.5 99 0.1 SSE 9 17 5 9 - - 0.4
26/09:30am 8.3 5.8 8.2 99 0.1 SSE 11 19 6 10 - - 0.2
26/09:00am 8.2 5.3 8.1 99 0.1 SSE 13 24 7 13 - - 3.6
26/08:30am 8.0 6.4 7.9 99 0.1 SSE 6 17 3 9 - - 3.6
26/08:00am 7.8 4.8 7.7 99 0.1 SE 13 20 7 11 - - 3.2
26/07:30am 7.6 4.9 7.5 99 0.0 SSE 11 20 6 11 - - 3.2
26/07:00am 7.4 4.3 7.3 99 0.0 SE 13 22 7 12 - - 3.2
26/06:30am 7.3 4.6 7.2 99 0.0 SE 11 20 6 11 - - 3.0
26/06:00am 6.9 4.1 6.8 99 0.0 SSE 11 20 6 11 - - 2.8
26/05:30am 6.8 4.3 6.7 99 0.0 SSE 9 20 5 11 - - 2.8
26/05:00am 6.9 4.5 6.8 99 0.0 SE 9 17 5 9 - - 2.6
26/04:30am 6.8 3.9 6.7 99 0.0 S 11 24 6 13 - - 2.6
26/04:00am 6.7 3.8 6.6 99 0.0 S 11 22 6 12 - - 2.6
26/03:30am 6.5 4.0 6.4 99 0.0 SSW 9 17 5 9 - - 2.2
26/03:00am 6.5 3.6 6.4 99 0.0 SSE 11 20 6 11 - - 2.0
26/02:30am 6.4 3.8 6.3 99 0.0 SSW 9 19 5 10 - - 2.0
26/02:00am 6.5 3.6 6.4 99 0.0 SSW 11 20 6 11 - - 2.0
26/01:30am 6.5 3.2 6.4 99 0.0 S 13 20 7 11 - - 1.8
26/01:00am 6.5 3.2 6.4 99 0.0 SSW 13 26 7 14 - - 1.8
26/12:30am 6.6 4.1 6.5 99 0.0 SSW 9 20 5 11 - - 1.4
26/12:00am 6.6 4.1 6.5 99 0.0 SSW 9 22 5 12 - - 1.4
 
Date/Time
EST
Temp
°C
App
Temp
°C
Dew
Point
°C
Rel
Hum
%
Delta-T
°C
Wind Press
QNH
hPa
Press
MSL
hPa
Rain since
9am
mm
Dir  Spd
km/h
Gust
km/h
Spd
kts
Gust
kts
25/11:30pm 6.6 2.6 6.5 99 0.0 S 17 32 9 17 - - 1.4
25/11:00pm 6.7 3.1 6.6 99 0.0 SSW 15 28 8 15 - - 1.2
25/10:30pm 6.8 2.4 6.7 99 0.0 SSW 19 32 10 17 - - 1.2
25/10:00pm 6.8 2.2 6.7 99 0.0 SSW 20 32 11 17 - - 1.0
25/09:30pm 6.8 2.4 6.7 99 0.0 SSW 19 39 10 21 - - 1.0
25/09:00pm 6.9 2.4 6.8 99 0.0 SSW 20 35 11 19 - - 1.0
25/08:46pm 6.9 2.4 6.8 99 0.0 SSW 20 39 11 21 - - 0.8
25/08:30pm 6.9 2.6 6.8 99 0.0 SW 19 35 10 19 - - 0.8
25/08:07pm 6.8 2.2 6.7 99 0.0 SSW 20 35 11 19 - - 0.8
25/08:00pm 6.9 2.4 6.8 99 0.0 SSW 20 35 11 19 - - 0.8
25/07:30pm 6.9 3.3 6.8 99 0.0 SSW 15 30 8 16 - - 0.8
25/07:00pm 7.0 3.0 6.7 98 0.1 SSW 17 30 9 16 - - 0.8
25/06:30pm 7.1 3.1 6.8 98 0.1 SSW 17 30 9 16 - - 0.4
25/06:00pm 7.1 2.5 6.7 97 0.2 SSW 20 39 11 21 - - 0.4
25/05:30pm 7.2 2.8 6.6 96 0.3 SSW 19 32 10 17 - - 0.2
25/05:00pm 7.4 3.0 6.5 94 0.4 SSW 19 39 10 21 - - 0.2
25/04:57pm 7.4 3.0 6.5 94 0.4 SSW 19 32 10 17 - - 0.2
25/04:46pm 7.5 2.9 6.4 93 0.5 SSW 20 35 11 19 - - 0.2
25/04:30pm 7.6 3.2 6.5 93 0.5 SSW 19 33 10 18 - - 0.2
25/04:00pm 7.8 3.4 6.4 91 0.7 SSW 19 33 10 18 - - 0.2
25/03:44pm 7.7 3.3 6.5 92 0.6 SSW 19 28 10 15 - - 0.2
25/03:30pm 7.7 3.7 6.5 92 0.6 SSW 17 26 9 14 - - 0.2
25/03:28pm 7.8 3.7 6.4 91 0.7 SSW 17 28 9 15 - - 0.2

Other formats

Comma delimited format used in spreadsheet applications
http://www.bom.gov.au/fwo/IDN60801/IDN60801.94743.axf

JavaScript Object Notation format (JSON) in row-major order
http://www.bom.gov.au/fwo/IDN60801/IDN60801.94743.json

Data quality

Most of these data are generated automatically and are frequently updated. Quality checks on data are not normally performed. It is possible for incorrect values to appear. Refer to information at About Latest Weather Observations and please check the disclaimer before using these data.